createdAt,value
2019-02-05T00:01:11.909Z,97.16
2019-02-05T00:01:55.143Z,97.25
2019-02-05T00:05:02.488Z,97.73
2019-02-05T00:05:33.435Z,97.73
2019-02-05T00:06:30.434Z,97.92
2019-02-05T00:07:57.490Z,97.63
2019-02-05T00:08:51.427Z,97.73
2019-02-05T00:09:25.160Z,97.54
2019-02-05T00:17:03.278Z,98.01
2019-02-05T00:17:43.494Z,98.20
2019-02-05T00:22:27.286Z,98.68
2019-02-05T00:24:56.357Z,98.49
2019-02-05T00:25:48.326Z,97.92
2019-02-05T00:28:13.886Z,98.01
2019-02-05T00:29:08.946Z,98.39
2019-02-05T00:31:37.088Z,97.82
2019-02-05T00:32:51.744Z,98.39
2019-02-05T00:35:06.859Z,98.11
2019-02-05T00:36:35.027Z,98.20
2019-02-05T00:41:53.216Z,98.20
2019-02-05T00:42:39.714Z,98.20
2019-02-05T00:43:37.679Z,98.30
2019-02-05T00:45:03.160Z,98.11
2019-02-05T00:45:42.175Z,98.30
2019-02-05T00:51:32.998Z,99.05
2019-02-05T00:54:16.043Z,98.86
2019-02-05T00:54:50.023Z,99.81
2019-02-05T00:56:02.012Z,99.66
2019-02-05T00:58:59.533Z,99.76
2019-02-05T00:59:24.935Z,99.76
2019-02-05T01:00:25.938Z,99.76
2019-02-05T01:07:56.395Z,99.99
2019-02-05T01:08:36.205Z,99.99
2019-02-05T01:09:42.608Z,99.99
2019-02-05T01:10:33.533Z,99.99
2019-02-05T01:11:33.551Z,99.99
2019-02-05T01:13:01.117Z,99.99
2019-02-05T01:13:32.803Z,99.99
2019-02-05T01:14:39.187Z,99.99
2019-02-05T01:15:33.605Z,99.99
2019-02-05T01:16:36.875Z,99.99
2019-02-05T01:17:34.118Z,99.99
2019-02-05T01:20:21.325Z,99.99
2019-02-05T01:21:07.797Z,99.99
2019-02-05T01:22:08.849Z,99.99
2019-02-05T01:23:04.433Z,99.99
2019-02-05T01:24:28.304Z,99.99
2019-02-05T01:25:42.717Z,99.99
2019-02-05T01:26:31.261Z,99.99
2019-02-05T01:27:07.848Z,99.99
2019-02-05T01:29:52.807Z,99.99
2019-02-05T01:30:41.767Z,99.99
2019-02-05T01:33:28.486Z,99.99
2019-02-05T01:36:05.534Z,99.99
2019-02-05T01:36:57.074Z,99.99
2019-02-05T01:37:44.744Z,99.99
2019-02-05T01:39:09.705Z,99.99
2019-02-05T01:39:44.562Z,99.99
2019-02-05T01:40:47.997Z,99.99
2019-02-05T01:41:46.018Z,99.99
2019-02-05T01:44:39.109Z,99.99
2019-02-05T01:45:18.091Z,99.99
2019-02-05T01:46:39.134Z,99.99
2019-02-05T01:47:40.560Z,99.99
2019-02-05T01:48:26.967Z,99.99
2019-02-05T01:49:30.611Z,99.99
2019-02-05T01:50:19.951Z,99.99
2019-02-05T01:51:17.583Z,99.99
2019-02-05T01:52:18.080Z,99.99
2019-02-05T01:53:39.566Z,99.99
2019-02-05T01:54:20.594Z,99.99
2019-02-05T01:55:17.559Z,99.99
2019-02-05T01:57:58.142Z,99.99
2019-02-05T02:00:49.715Z,99.99
2019-02-05T02:01:21.155Z,99.99
2019-02-05T02:02:37.033Z,99.99
2019-02-05T02:03:43.388Z,99.99
2019-02-05T02:04:32.467Z,99.99
2019-02-05T02:05:23.676Z,99.99
2019-02-05T02:06:22.673Z,99.99
2019-02-05T02:07:53.934Z,99.99
2019-02-05T02:08:25.687Z,99.99
2019-02-05T02:11:11.592Z,99.99
2019-02-05T02:12:06.565Z,99.99
